sensor_id;sensor_type;location;lat;lon;timestamp;P1;durP1;ratioP1;P2;durP2;ratioP2
65936;SDS011;52707;52.086;5.418;2022-12-01T00:01:43;57.97;;;28.48;;
65936;SDS011;52707;52.086;5.418;2022-12-01T00:04:09;63.33;;;28.70;;
65936;SDS011;52707;52.086;5.418;2022-12-01T00:06:35;58.15;;;28.27;;
65936;SDS011;52707;52.086;5.418;2022-12-01T00:09:02;63.58;;;30.05;;
65936;SDS011;52707;52.086;5.418;2022-12-01T00:11:46;60.22;;;28.33;;
65936;SDS011;52707;52.086;5.418;2022-12-01T00:14:13;54.40;;;26.65;;
65936;SDS011;52707;52.086;5.418;2022-12-01T00:16:41;56.53;;;27.55;;
65936;SDS011;52707;52.086;5.418;2022-12-01T00:19:09;54.17;;;27.55;;
65936;SDS011;52707;52.086;5.418;2022-12-01T00:21:35;61.20;;;28.50;;
65936;SDS011;52707;52.086;5.418;2022-12-01T00:24:02;57.85;;;28.58;;
65936;SDS011;52707;52.086;5.418;2022-12-01T00:26:28;61.35;;;28.55;;
65936;SDS011;52707;52.086;5.418;2022-12-01T00:28:55;57.63;;;27.27;;
65936;SDS011;52707;52.086;5.418;2022-12-01T00:31:22;62.78;;;29.20;;
65936;SDS011;52707;52.086;5.418;2022-12-01T00:33:49;63.83;;;29.40;;
65936;SDS011;52707;52.086;5.418;2022-12-01T00:36:15;53.95;;;27.55;;
65936;SDS011;52707;52.086;5.418;2022-12-01T00:38:42;55.42;;;28.83;;
65936;SDS011;52707;52.086;5.418;2022-12-01T00:41:08;51.78;;;27.33;;
65936;SDS011;52707;52.086;5.418;2022-12-01T00:43:34;58.20;;;26.63;;
65936;SDS011;52707;52.086;5.418;2022-12-01T00:46:01;61.28;;;29.02;;
65936;SDS011;52707;52.086;5.418;2022-12-01T00:48:27;58.17;;;28.85;;
65936;SDS011;52707;52.086;5.418;2022-12-01T00:50:53;56.08;;;27.45;;
65936;SDS011;52707;52.086;5.418;2022-12-01T00:53:20;58.35;;;27.35;;
65936;SDS011;52707;52.086;5.418;2022-12-01T00:55:46;54.28;;;28.40;;
65936;SDS011;52707;52.086;5.418;2022-12-01T00:58:13;57.28;;;27.30;;
65936;SDS011;52707;52.086;5.418;2022-12-01T01:00:39;55.10;;;27.80;;
65936;SDS011;52707;52.086;5.418;2022-12-01T01:03:06;56.13;;;26.77;;
65936;SDS011;52707;52.086;5.418;2022-12-01T01:05:39;55.30;;;26.65;;
65936;SDS011;52707;52.086;5.418;2022-12-01T01:08:09;50.33;;;26.83;;
65936;SDS011;52707;52.086;5.418;2022-12-01T01:10:43;53.13;;;25.73;;
65936;SDS011;52707;52.086;5.418;2022-12-01T01:13:09;57.80;;;28.15;;
65936;SDS011;52707;52.086;5.418;2022-12-01T01:15:37;56.88;;;28.52;;
65936;SDS011;52707;52.086;5.418;2022-12-01T01:18:03;51.10;;;25.60;;
65936;SDS011;52707;52.086;5.418;2022-12-01T01:20:30;55.63;;;27.17;;
65936;SDS011;52707;52.086;5.418;2022-12-01T01:22:56;56.08;;;27.35;;
65936;SDS011;52707;52.086;5.418;2022-12-01T01:25:23;57.22;;;27.45;;
65936;SDS011;52707;52.086;5.418;2022-12-01T01:27:50;55.58;;;26.63;;
65936;SDS011;52707;52.086;5.418;2022-12-01T01:30:16;53.05;;;25.85;;
65936;SDS011;52707;52.086;5.418;2022-12-01T01:32:43;52.92;;;26.42;;
65936;SDS011;52707;52.086;5.418;2022-12-01T01:35:09;59.95;;;28.05;;
65936;SDS011;52707;52.086;5.418;2022-12-01T01:37:35;55.63;;;25.98;;
65936;SDS011;52707;52.086;5.418;2022-12-01T01:40:02;51.60;;;25.58;;
65936;SDS011;52707;52.086;5.418;2022-12-01T01:42:28;56.50;;;25.75;;
65936;SDS011;52707;52.086;5.418;2022-12-01T01:44:55;48.53;;;25.02;;
65936;SDS011;52707;52.086;5.418;2022-12-01T01:49:49;59.47;;;26.50;;
65936;SDS011;52707;52.086;5.418;2022-12-01T01:52:16;57.97;;;26.98;;
65936;SDS011;52707;52.086;5.418;2022-12-01T01:54:44;53.80;;;26.33;;
65936;SDS011;52707;52.086;5.418;2022-12-01T01:57:11;54.25;;;26.75;;
65936;SDS011;52707;52.086;5.418;2022-12-01T01:59:42;54.58;;;25.90;;
65936;SDS011;52707;52.086;5.418;2022-12-01T02:02:10;52.72;;;24.13;;
65936;SDS011;52707;52.086;5.418;2022-12-01T02:04:39;52.53;;;25.33;;
65936;SDS011;52707;52.086;5.418;2022-12-01T02:07:07;62.22;;;27.00;;
65936;SDS011;52707;52.086;5.418;2022-12-01T02:09:33;59.78;;;27.17;;
65936;SDS011;52707;52.086;5.418;2022-12-01T02:14:48;58.03;;;26.20;;
65936;SDS011;52707;52.086;5.418;2022-12-01T02:25:32;60.10;;;26.95;;
65936;SDS011;52707;52.086;5.418;2022-12-01T02:33:01;68.05;;;28.45;;
65936;SDS011;52707;52.086;5.418;2022-12-01T02:37:59;60.38;;;27.65;;
65936;SDS011;52707;52.086;5.418;2022-12-01T02:40:42;63.53;;;28.55;;
65936;SDS011;52707;52.086;5.418;2022-12-01T02:43:23;66.05;;;27.90;;
65936;SDS011;52707;52.086;5.418;2022-12-01T02:48:28;65.82;;;28.15;;
65936;SDS011;52707;52.086;5.418;2022-12-01T02:50:57;62.05;;;26.70;;
65936;SDS011;52707;52.086;5.418;2022-12-01T02:53:24;61.17;;;27.90;;
65936;SDS011;52707;52.086;5.418;2022-12-01T02:55:51;60.80;;;26.73;;
65936;SDS011;52707;52.086;5.418;2022-12-01T02:58:18;68.30;;;27.92;;
65936;SDS011;52707;52.086;5.418;2022-12-01T03:03:39;63.20;;;27.80;;
65936;SDS011;52707;52.086;5.418;2022-12-01T03:06:15;63.60;;;28.42;;
65936;SDS011;52707;52.086;5.418;2022-12-01T03:08:58;67.72;;;27.98;;
65936;SDS011;52707;52.086;5.418;2022-12-01T03:12:02;58.45;;;28.15;;
65936;SDS011;52707;52.086;5.418;2022-12-01T03:14:28;70.07;;;28.73;;
65936;SDS011;52707;52.086;5.418;2022-12-01T03:16:57;67.70;;;29.33;;
65936;SDS011;52707;52.086;5.418;2022-12-01T03:21:56;66.53;;;29.13;;
65936;SDS011;52707;52.086;5.418;2022-12-01T03:24:25;67.75;;;29.83;;
65936;SDS011;52707;52.086;5.418;2022-12-01T03:26:54;63.22;;;27.70;;
65936;SDS011;52707;52.086;5.418;2022-12-01T03:29:26;69.63;;;30.95;;
65936;SDS011;52707;52.086;5.418;2022-12-01T03:31:53;63.58;;;28.30;;
65936;SDS011;52707;52.086;5.418;2022-12-01T03:34:33;66.35;;;27.42;;
65936;SDS011;52707;52.086;5.418;2022-12-01T03:37:03;61.75;;;26.98;;
65936;SDS011;52707;52.086;5.418;2022-12-01T03:41:59;70.65;;;28.80;;
65936;SDS011;52707;52.086;5.418;2022-12-01T03:44:31;58.50;;;25.17;;
65936;SDS011;52707;52.086;5.418;2022-12-01T03:47:00;61.28;;;27.67;;
65936;SDS011;52707;52.086;5.418;2022-12-01T03:49:29;56.08;;;26.77;;
65936;SDS011;52707;52.086;5.418;2022-12-01T03:54:45;67.70;;;28.27;;
65936;SDS011;52707;52.086;5.418;2022-12-01T03:57:18;70.78;;;28.55;;
65936;SDS011;52707;52.086;5.418;2022-12-01T03:59:48;76.25;;;27.90;;
65936;SDS011;52707;52.086;5.418;2022-12-01T04:02:15;62.15;;;26.38;;
65936;SDS011;52707;52.086;5.418;2022-12-01T04:04:42;61.17;;;27.42;;
65936;SDS011;52707;52.086;5.418;2022-12-01T04:07:08;58.78;;;26.42;;
65936;SDS011;52707;52.086;5.418;2022-12-01T04:09:41;59.97;;;25.87;;
65936;SDS011;52707;52.086;5.418;2022-12-01T04:12:08;57.00;;;26.55;;
65936;SDS011;52707;52.086;5.418;2022-12-01T04:14:56;55.42;;;26.27;;
65936;SDS011;52707;52.086;5.418;2022-12-01T04:17:22;59.45;;;26.08;;
65936;SDS011;52707;52.086;5.418;2022-12-01T04:19:49;64.18;;;27.75;;
65936;SDS011;52707;52.086;5.418;2022-12-01T04:22:16;63.63;;;26.58;;
65936;SDS011;52707;52.086;5.418;2022-12-01T04:24:42;59.85;;;26.50;;
65936;SDS011;52707;52.086;5.418;2022-12-01T04:27:08;62.33;;;26.10;;
65936;SDS011;52707;52.086;5.418;2022-12-01T04:29:35;57.88;;;24.10;;
65936;SDS011;52707;52.086;5.418;2022-12-01T04:32:01;59.40;;;26.20;;
65936;SDS011;52707;52.086;5.418;2022-12-01T04:34:27;56.80;;;26.25;;
65936;SDS011;52707;52.086;5.418;2022-12-01T04:36:53;62.35;;;25.75;;
65936;SDS011;52707;52.086;5.418;2022-12-01T04:39:20;63.03;;;28.00;;
65936;SDS011;52707;52.086;5.418;2022-12-01T04:41:46;62.03;;;27.05;;
65936;SDS011;52707;52.086;5.418;2022-12-01T04:44:12;57.22;;;26.98;;
65936;SDS011;52707;52.086;5.418;2022-12-01T04:46:39;61.20;;;26.40;;
65936;SDS011;52707;52.086;5.418;2022-12-01T04:49:05;64.25;;;27.13;;
65936;SDS011;52707;52.086;5.418;2022-12-01T04:51:33;59.42;;;26.95;;
65936;SDS011;52707;52.086;5.418;2022-12-01T04:54:00;61.08;;;25.65;;
65936;SDS011;52707;52.086;5.418;2022-12-01T04:56:26;67.82;;;26.92;;
65936;SDS011;52707;52.086;5.418;2022-12-01T04:58:52;59.75;;;26.88;;
65936;SDS011;52707;52.086;5.418;2022-12-01T05:01:19;59.75;;;26.63;;
65936;SDS011;52707;52.086;5.418;2022-12-01T05:03:46;63.58;;;27.35;;
65936;SDS011;52707;52.086;5.418;2022-12-01T05:06:18;66.55;;;27.23;;
65936;SDS011;52707;52.086;5.418;2022-12-01T05:11:11;64.15;;;27.08;;
65936;SDS011;52707;52.086;5.418;2022-12-01T05:13:39;58.78;;;26.92;;
65936;SDS011;52707;52.086;5.418;2022-12-01T05:16:07;64.90;;;28.25;;
65936;SDS011;52707;52.086;5.418;2022-12-01T05:18:34;56.72;;;26.00;;
65936;SDS011;52707;52.086;5.418;2022-12-01T05:21:00;63.67;;;28.13;;
65936;SDS011;52707;52.086;5.418;2022-12-01T05:23:30;62.33;;;27.25;;
65936;SDS011;52707;52.086;5.418;2022-12-01T05:25:56;60.22;;;26.70;;
65936;SDS011;52707;52.086;5.418;2022-12-01T05:28:23;63.90;;;28.13;;
65936;SDS011;52707;52.086;5.418;2022-12-01T05:30:50;59.25;;;27.00;;
65936;SDS011;52707;52.086;5.418;2022-12-01T05:33:16;64.38;;;27.15;;
65936;SDS011;52707;52.086;5.418;2022-12-01T05:35:43;55.72;;;26.88;;
65936;SDS011;52707;52.086;5.418;2022-12-01T05:38:09;65.60;;;26.75;;
65936;SDS011;52707;52.086;5.418;2022-12-01T05:40:35;64.32;;;26.80;;
65936;SDS011;52707;52.086;5.418;2022-12-01T05:43:02;67.60;;;27.52;;
65936;SDS011;52707;52.086;5.418;2022-12-01T05:45:28;69.97;;;27.92;;
65936;SDS011;52707;52.086;5.418;2022-12-01T05:47:55;61.92;;;26.10;;
65936;SDS011;52707;52.086;5.418;2022-12-01T05:50:22;59.47;;;26.55;;
65936;SDS011;52707;52.086;5.418;2022-12-01T05:52:48;65.40;;;27.92;;
65936;SDS011;52707;52.086;5.418;2022-12-01T05:55:14;65.18;;;27.73;;
65936;SDS011;52707;52.086;5.418;2022-12-01T05:57:41;67.53;;;27.58;;
65936;SDS011;52707;52.086;5.418;2022-12-01T06:00:07;62.60;;;28.65;;
65936;SDS011;52707;52.086;5.418;2022-12-01T06:02:34;60.13;;;26.10;;
65936;SDS011;52707;52.086;5.418;2022-12-01T06:05:00;67.35;;;29.02;;
65936;SDS011;52707;52.086;5.418;2022-12-01T06:07:26;74.32;;;29.27;;
65936;SDS011;52707;52.086;5.418;2022-12-01T06:09:53;68.78;;;28.88;;
65936;SDS011;52707;52.086;5.418;2022-12-01T06:12:19;59.75;;;27.33;;
65936;SDS011;52707;52.086;5.418;2022-12-01T06:14:46;69.18;;;27.80;;
65936;SDS011;52707;52.086;5.418;2022-12-01T06:17:12;65.60;;;27.48;;
65936;SDS011;52707;52.086;5.418;2022-12-01T06:19:38;65.80;;;27.33;;
65936;SDS011;52707;52.086;5.418;2022-12-01T06:22:04;65.53;;;27.15;;
65936;SDS011;52707;52.086;5.418;2022-12-01T06:24:31;67.38;;;27.10;;
65936;SDS011;52707;52.086;5.418;2022-12-01T06:26:57;67.65;;;26.75;;
65936;SDS011;52707;52.086;5.418;2022-12-01T06:29:23;75.32;;;27.55;;
65936;SDS011;52707;52.086;5.418;2022-12-01T06:31:50;63.88;;;25.90;;
65936;SDS011;52707;52.086;5.418;2022-12-01T06:34:16;58.50;;;25.02;;
65936;SDS011;52707;52.086;5.418;2022-12-01T06:36:42;57.58;;;25.75;;
65936;SDS011;52707;52.086;5.418;2022-12-01T06:39:09;73.43;;;26.20;;
65936;SDS011;52707;52.086;5.418;2022-12-01T06:41:36;69.82;;;26.58;;
65936;SDS011;52707;52.086;5.418;2022-12-01T06:44:02;67.03;;;27.10;;
65936;SDS011;52707;52.086;5.418;2022-12-01T06:46:29;64.40;;;25.90;;
65936;SDS011;52707;52.086;5.418;2022-12-01T06:48:55;67.00;;;26.08;;
65936;SDS011;52707;52.086;5.418;2022-12-01T06:51:22;66.35;;;25.55;;
65936;SDS011;52707;52.086;5.418;2022-12-01T06:53:52;57.95;;;25.08;;
65936;SDS011;52707;52.086;5.418;2022-12-01T06:56:18;56.60;;;24.98;;
65936;SDS011;52707;52.086;5.418;2022-12-01T06:58:45;63.60;;;25.58;;
65936;SDS011;52707;52.086;5.418;2022-12-01T07:01:12;64.13;;;25.75;;
65936;SDS011;52707;52.086;5.418;2022-12-01T07:03:38;66.38;;;26.60;;
65936;SDS011;52707;52.086;5.418;2022-12-01T07:06:05;66.85;;;26.58;;
65936;SDS011;52707;52.086;5.418;2022-12-01T07:08:31;69.88;;;25.50;;
65936;SDS011;52707;52.086;5.418;2022-12-01T07:11:02;62.90;;;25.35;;
65936;SDS011;52707;52.086;5.418;2022-12-01T07:13:29;52.00;;;23.33;;
65936;SDS011;52707;52.086;5.418;2022-12-01T07:15:59;55.53;;;22.67;;
65936;SDS011;52707;52.086;5.418;2022-12-01T07:18:26;61.40;;;25.33;;
65936;SDS011;52707;52.086;5.418;2022-12-01T07:20:52;54.13;;;23.90;;
65936;SDS011;52707;52.086;5.418;2022-12-01T07:23:18;59.45;;;23.80;;
65936;SDS011;52707;52.086;5.418;2022-12-01T07:25:46;54.53;;;22.80;;
65936;SDS011;52707;52.086;5.418;2022-12-01T07:28:12;61.15;;;24.08;;
65936;SDS011;52707;52.086;5.418;2022-12-01T07:30:38;57.38;;;23.85;;
65936;SDS011;52707;52.086;5.418;2022-12-01T07:33:05;50.70;;;22.30;;
65936;SDS011;52707;52.086;5.418;2022-12-01T07:35:31;60.03;;;25.00;;
65936;SDS011;52707;52.086;5.418;2022-12-01T07:37:57;55.53;;;23.33;;
65936;SDS011;52707;52.086;5.418;2022-12-01T07:40:24;52.05;;;23.10;;
65936;SDS011;52707;52.086;5.418;2022-12-01T07:42:50;68.28;;;24.83;;
65936;SDS011;52707;52.086;5.418;2022-12-01T07:45:16;63.72;;;24.50;;
65936;SDS011;52707;52.086;5.418;2022-12-01T07:47:42;66.72;;;25.58;;
65936;SDS011;52707;52.086;5.418;2022-12-01T07:50:09;59.20;;;23.67;;
65936;SDS011;52707;52.086;5.418;2022-12-01T07:52:36;63.60;;;23.35;;
65936;SDS011;52707;52.086;5.418;2022-12-01T07:55:02;61.50;;;24.25;;
65936;SDS011;52707;52.086;5.418;2022-12-01T07:57:28;66.03;;;24.85;;
65936;SDS011;52707;52.086;5.418;2022-12-01T07:59:54;67.20;;;25.48;;
65936;SDS011;52707;52.086;5.418;2022-12-01T08:02:21;80.18;;;27.25;;
65936;SDS011;52707;52.086;5.418;2022-12-01T08:04:47;66.10;;;26.92;;
65936;SDS011;52707;52.086;5.418;2022-12-01T08:07:14;74.57;;;29.17;;
65936;SDS011;52707;52.086;5.418;2022-12-01T08:09:40;76.90;;;29.15;;
65936;SDS011;52707;52.086;5.418;2022-12-01T08:12:06;73.72;;;29.42;;
65936;SDS011;52707;52.086;5.418;2022-12-01T08:14:32;86.75;;;30.25;;
65936;SDS011;52707;52.086;5.418;2022-12-01T08:16:59;81.05;;;31.50;;
65936;SDS011;52707;52.086;5.418;2022-12-01T08:19:25;76.57;;;30.65;;
65936;SDS011;52707;52.086;5.418;2022-12-01T08:21:52;79.57;;;32.90;;
65936;SDS011;52707;52.086;5.418;2022-12-01T08:24:18;81.07;;;30.75;;
65936;SDS011;52707;52.086;5.418;2022-12-01T08:26:45;90.43;;;32.22;;
65936;SDS011;52707;52.086;5.418;2022-12-01T08:29:11;83.70;;;32.47;;
65936;SDS011;52707;52.086;5.418;2022-12-01T08:31:44;83.25;;;32.20;;
65936;SDS011;52707;52.086;5.418;2022-12-01T08:34:11;94.80;;;35.10;;
65936;SDS011;52707;52.086;5.418;2022-12-01T08:36:37;80.07;;;33.53;;
65936;SDS011;52707;52.086;5.418;2022-12-01T08:39:03;97.15;;;34.97;;
65936;SDS011;52707;52.086;5.418;2022-12-01T08:41:29;87.70;;;33.97;;
65936;SDS011;52707;52.086;5.418;2022-12-01T08:43:56;84.32;;;35.08;;
65936;SDS011;52707;52.086;5.418;2022-12-01T08:46:34;92.95;;;36.50;;
65936;SDS011;52707;52.086;5.418;2022-12-01T08:49:01;93.68;;;35.47;;
65936;SDS011;52707;52.086;5.418;2022-12-01T08:51:27;79.75;;;33.67;;
65936;SDS011;52707;52.086;5.418;2022-12-01T08:53:54;94.20;;;36.35;;
65936;SDS011;52707;52.086;5.418;2022-12-01T08:56:25;95.85;;;36.85;;
65936;SDS011;52707;52.086;5.418;2022-12-01T09:01:18;91.43;;;35.78;;
65936;SDS011;52707;52.086;5.418;2022-12-01T09:03:45;89.00;;;36.53;;
65936;SDS011;52707;52.086;5.418;2022-12-01T09:06:15;89.15;;;36.25;;
65936;SDS011;52707;52.086;5.418;2022-12-01T09:08:43;88.30;;;37.25;;
65936;SDS011;52707;52.086;5.418;2022-12-01T09:11:10;92.65;;;37.47;;
65936;SDS011;52707;52.086;5.418;2022-12-01T09:13:37;95.47;;;37.80;;
65936;SDS011;52707;52.086;5.418;2022-12-01T09:16:05;96.63;;;38.53;;
65936;SDS011;52707;52.086;5.418;2022-12-01T09:18:32;91.20;;;38.08;;
65936;SDS011;52707;52.086;5.418;2022-12-01T09:20:59;90.25;;;37.13;;
65936;SDS011;52707;52.086;5.418;2022-12-01T09:23:25;90.80;;;37.28;;
65936;SDS011;52707;52.086;5.418;2022-12-01T09:25:52;86.03;;;35.20;;
65936;SDS011;52707;52.086;5.418;2022-12-01T09:28:18;90.93;;;35.72;;
65936;SDS011;52707;52.086;5.418;2022-12-01T09:30:45;85.72;;;35.42;;
65936;SDS011;52707;52.086;5.418;2022-12-01T09:33:12;88.22;;;36.95;;
65936;SDS011;52707;52.086;5.418;2022-12-01T09:35:38;90.90;;;36.70;;
65936;SDS011;52707;52.086;5.418;2022-12-01T09:38:04;82.45;;;35.08;;
65936;SDS011;52707;52.086;5.418;2022-12-01T09:40:34;87.40;;;36.85;;
65936;SDS011;52707;52.086;5.418;2022-12-01T09:43:01;84.40;;;36.97;;
65936;SDS011;52707;52.086;5.418;2022-12-01T09:45:29;80.50;;;34.35;;
65936;SDS011;52707;52.086;5.418;2022-12-01T09:47:58;77.35;;;34.72;;
65936;SDS011;52707;52.086;5.418;2022-12-01T09:50:25;81.68;;;35.38;;
65936;SDS011;52707;52.086;5.418;2022-12-01T09:52:59;74.43;;;33.35;;
65936;SDS011;52707;52.086;5.418;2022-12-01T09:55:27;75.45;;;34.60;;
65936;SDS011;52707;52.086;5.418;2022-12-01T09:57:56;75.88;;;33.63;;
65936;SDS011;52707;52.086;5.418;2022-12-01T10:00:24;77.80;;;36.13;;
65936;SDS011;52707;52.086;5.418;2022-12-01T10:02:52;71.85;;;35.05;;
65936;SDS011;52707;52.086;5.418;2022-12-01T10:05:20;75.65;;;33.55;;
65936;SDS011;52707;52.086;5.418;2022-12-01T10:07:49;72.60;;;33.40;;
65936;SDS011;52707;52.086;5.418;2022-12-01T10:10:27;73.85;;;34.97;;
65936;SDS011;52707;52.086;5.418;2022-12-01T10:12:55;70.88;;;32.78;;
65936;SDS011;52707;52.086;5.418;2022-12-01T10:15:42;68.57;;;32.75;;
65936;SDS011;52707;52.086;5.418;2022-12-01T10:20:42;68.05;;;32.70;;
65936;SDS011;52707;52.086;5.418;2022-12-01T10:28:17;70.45;;;34.08;;
65936;SDS011;52707;52.086;5.418;2022-12-01T10:30:49;71.10;;;34.17;;
65936;SDS011;52707;52.086;5.418;2022-12-01T10:33:23;73.13;;;34.40;;
65936;SDS011;52707;52.086;5.418;2022-12-01T10:35:50;76.18;;;35.05;;
65936;SDS011;52707;52.086;5.418;2022-12-01T10:38:30;72.00;;;34.65;;
65936;SDS011;52707;52.086;5.418;2022-12-01T10:40:58;77.20;;;33.95;;
65936;SDS011;52707;52.086;5.418;2022-12-01T10:43:28;70.05;;;34.53;;
65936;SDS011;52707;52.086;5.418;2022-12-01T10:48:22;82.28;;;33.30;;
65936;SDS011;52707;52.086;5.418;2022-12-01T10:50:50;77.18;;;33.80;;
65936;SDS011;52707;52.086;5.418;2022-12-01T10:53:27;72.80;;;34.30;;
65936;SDS011;52707;52.086;5.418;2022-12-01T10:58:23;73.28;;;34.63;;
65936;SDS011;52707;52.086;5.418;2022-12-01T11:00:58;77.32;;;34.80;;
65936;SDS011;52707;52.086;5.418;2022-12-01T11:03:27;73.95;;;35.17;;
65936;SDS011;52707;52.086;5.418;2022-12-01T11:05:56;73.35;;;35.20;;
65936;SDS011;52707;52.086;5.418;2022-12-01T11:08:24;73.30;;;36.33;;
65936;SDS011;52707;52.086;5.418;2022-12-01T11:10:55;72.57;;;34.75;;
65936;SDS011;52707;52.086;5.418;2022-12-01T11:13:22;67.32;;;33.10;;
65936;SDS011;52707;52.086;5.418;2022-12-01T11:15:53;64.30;;;32.42;;
65936;SDS011;52707;52.086;5.418;2022-12-01T11:20:46;63.03;;;30.25;;
65936;SDS011;52707;52.086;5.418;2022-12-01T11:28:27;57.10;;;30.33;;
65936;SDS011;52707;52.086;5.418;2022-12-01T11:30:55;56.20;;;30.88;;
65936;SDS011;52707;52.086;5.418;2022-12-01T11:33:22;56.58;;;29.80;;
65936;SDS011;52707;52.086;5.418;2022-12-01T11:35:48;52.60;;;30.20;;
65936;SDS011;52707;52.086;5.418;2022-12-01T11:38:21;58.33;;;32.45;;
65936;SDS011;52707;52.086;5.418;2022-12-01T11:40:56;55.10;;;32.10;;
65936;SDS011;52707;52.086;5.418;2022-12-01T11:43:30;55.25;;;30.48;;
65936;SDS011;52707;52.086;5.418;2022-12-01T11:45:57;50.33;;;30.48;;
65936;SDS011;52707;52.086;5.418;2022-12-01T11:48:26;50.40;;;30.55;;
65936;SDS011;52707;52.086;5.418;2022-12-01T11:51:06;55.15;;;30.95;;
65936;SDS011;52707;52.086;5.418;2022-12-01T11:53:37;47.60;;;28.50;;
65936;SDS011;52707;52.086;5.418;2022-12-01T11:58:40;48.75;;;29.08;;
65936;SDS011;52707;52.086;5.418;2022-12-01T12:01:12;44.20;;;27.80;;
65936;SDS011;52707;52.086;5.418;2022-12-01T12:06:41;47.53;;;28.02;;
65936;SDS011;52707;52.086;5.418;2022-12-01T12:11:39;43.28;;;27.05;;
65936;SDS011;52707;52.086;5.418;2022-12-01T12:37:48;44.17;;;26.73;;
65936;SDS011;52707;52.086;5.418;2022-12-01T12:43:05;41.72;;;26.15;;
65936;SDS011;52707;52.086;5.418;2022-12-01T12:48:05;44.95;;;26.35;;
65936;SDS011;52707;52.086;5.418;2022-12-01T12:50:49;46.95;;;26.73;;
65936;SDS011;52707;52.086;5.418;2022-12-01T12:53:22;43.70;;;25.95;;
65936;SDS011;52707;52.086;5.418;2022-12-01T12:55:50;45.10;;;27.08;;
65936;SDS011;52707;52.086;5.418;2022-12-01T13:01:00;48.33;;;27.27;;
65936;SDS011;52707;52.086;5.418;2022-12-01T13:06:01;50.72;;;27.75;;
65936;SDS011;52707;52.086;5.418;2022-12-01T13:08:32;46.95;;;26.80;;
65936;SDS011;52707;52.086;5.418;2022-12-01T13:11:22;52.25;;;29.50;;
65936;SDS011;52707;52.086;5.418;2022-12-01T13:16:27;50.67;;;27.45;;
65936;SDS011;52707;52.086;5.418;2022-12-01T13:19:00;51.28;;;28.45;;
65936;SDS011;52707;52.086;5.418;2022-12-01T13:21:34;49.53;;;27.17;;
65936;SDS011;52707;52.086;5.418;2022-12-01T13:24:01;48.00;;;27.35;;
65936;SDS011;52707;52.086;5.418;2022-12-01T13:26:29;59.78;;;26.88;;
65936;SDS011;52707;52.086;5.418;2022-12-01T13:28:56;46.95;;;25.15;;
65936;SDS011;52707;52.086;5.418;2022-12-01T13:31:22;44.58;;;25.80;;
65936;SDS011;52707;52.086;5.418;2022-12-01T13:34:02;45.42;;;25.05;;
65936;SDS011;52707;52.086;5.418;2022-12-01T13:36:28;52.28;;;27.65;;
65936;SDS011;52707;52.086;5.418;2022-12-01T13:39:19;51.65;;;27.20;;
65936;SDS011;52707;52.086;5.418;2022-12-01T13:41:54;49.10;;;27.45;;
65936;SDS011;52707;52.086;5.418;2022-12-01T13:44:22;49.22;;;27.20;;
65936;SDS011;52707;52.086;5.418;2022-12-01T13:49:33;48.15;;;26.20;;
65936;SDS011;52707;52.086;5.418;2022-12-01T13:57:29;50.00;;;26.98;;
65936;SDS011;52707;52.086;5.418;2022-12-01T14:02:28;53.47;;;27.35;;
65936;SDS011;52707;52.086;5.418;2022-12-01T14:07:40;50.50;;;27.02;;
65936;SDS011;52707;52.086;5.418;2022-12-01T14:10:22;43.85;;;25.33;;
65936;SDS011;52707;52.086;5.418;2022-12-01T14:12:49;44.03;;;24.83;;
65936;SDS011;52707;52.086;5.418;2022-12-01T14:18:02;50.13;;;26.13;;
65936;SDS011;52707;52.086;5.418;2022-12-01T14:20:30;47.83;;;24.58;;
65936;SDS011;52707;52.086;5.418;2022-12-01T14:23:01;45.00;;;24.60;;
65936;SDS011;52707;52.086;5.418;2022-12-01T14:25:28;43.85;;;25.30;;
65936;SDS011;52707;52.086;5.418;2022-12-01T14:27:57;45.20;;;24.55;;
65936;SDS011;52707;52.086;5.418;2022-12-01T14:35:50;48.63;;;25.90;;
65936;SDS011;52707;52.086;5.418;2022-12-01T14:38:17;50.45;;;26.23;;
65936;SDS011;52707;52.086;5.418;2022-12-01T14:40:43;50.10;;;26.27;;
65936;SDS011;52707;52.086;5.418;2022-12-01T14:43:09;51.90;;;26.85;;
65936;SDS011;52707;52.086;5.418;2022-12-01T14:46:03;48.92;;;25.17;;
65936;SDS011;52707;52.086;5.418;2022-12-01T14:48:33;48.10;;;26.35;;
65936;SDS011;52707;52.086;5.418;2022-12-01T14:51:09;47.63;;;24.87;;
65936;SDS011;52707;52.086;5.418;2022-12-01T14:53:38;50.42;;;26.40;;
65936;SDS011;52707;52.086;5.418;2022-12-01T14:56:10;49.80;;;26.98;;
65936;SDS011;52707;52.086;5.418;2022-12-01T14:58:37;53.35;;;26.25;;
65936;SDS011;52707;52.086;5.418;2022-12-01T15:01:05;50.45;;;27.45;;
65936;SDS011;52707;52.086;5.418;2022-12-01T15:03:34;54.83;;;27.20;;
65936;SDS011;52707;52.086;5.418;2022-12-01T15:06:01;49.65;;;26.58;;
65936;SDS011;52707;52.086;5.418;2022-12-01T15:08:28;46.05;;;25.75;;
65936;SDS011;52707;52.086;5.418;2022-12-01T15:11:21;48.13;;;26.35;;
65936;SDS011;52707;52.086;5.418;2022-12-01T15:13:51;47.67;;;26.58;;
65936;SDS011;52707;52.086;5.418;2022-12-01T15:16:22;43.65;;;25.13;;
65936;SDS011;52707;52.086;5.418;2022-12-01T15:18:49;50.28;;;26.98;;
65936;SDS011;52707;52.086;5.418;2022-12-01T15:21:19;45.20;;;24.98;;
65936;SDS011;52707;52.086;5.418;2022-12-01T15:26:18;51.45;;;25.98;;
65936;SDS011;52707;52.086;5.418;2022-12-01T15:28:44;46.65;;;25.45;;
65936;SDS011;52707;52.086;5.418;2022-12-01T15:31:11;44.13;;;24.58;;
65936;SDS011;52707;52.086;5.418;2022-12-01T15:33:42;48.65;;;25.73;;
65936;SDS011;52707;52.086;5.418;2022-12-01T15:36:09;48.22;;;24.95;;
65936;SDS011;52707;52.086;5.418;2022-12-01T15:38:36;52.30;;;26.13;;
65936;SDS011;52707;52.086;5.418;2022-12-01T15:41:03;48.45;;;24.65;;
65936;SDS011;52707;52.086;5.418;2022-12-01T15:43:54;42.92;;;23.33;;
65936;SDS011;52707;52.086;5.418;2022-12-01T15:46:28;44.85;;;24.75;;
65936;SDS011;52707;52.086;5.418;2022-12-01T15:52:02;50.53;;;25.73;;
65936;SDS011;52707;52.086;5.418;2022-12-01T15:54:30;48.55;;;26.50;;
65936;SDS011;52707;52.086;5.418;2022-12-01T15:56:57;53.28;;;25.85;;
65936;SDS011;52707;52.086;5.418;2022-12-01T16:01:52;44.72;;;23.40;;
65936;SDS011;52707;52.086;5.418;2022-12-01T16:04:20;47.85;;;23.58;;
65936;SDS011;52707;52.086;5.418;2022-12-01T16:07:06;47.60;;;23.55;;
65936;SDS011;52707;52.086;5.418;2022-12-01T16:09:37;47.22;;;23.42;;
65936;SDS011;52707;52.086;5.418;2022-12-01T16:17:15;43.83;;;24.38;;
65936;SDS011;52707;52.086;5.418;2022-12-01T16:19:42;44.17;;;24.05;;
65936;SDS011;52707;52.086;5.418;2022-12-01T16:24:41;45.00;;;23.45;;
65936;SDS011;52707;52.086;5.418;2022-12-01T16:27:16;48.83;;;23.92;;
65936;SDS011;52707;52.086;5.418;2022-12-01T16:32:17;43.75;;;21.95;;
65936;SDS011;52707;52.086;5.418;2022-12-01T16:37:13;44.65;;;22.83;;
65936;SDS011;52707;52.086;5.418;2022-12-01T16:39:39;49.38;;;24.30;;
65936;SDS011;52707;52.086;5.418;2022-12-01T16:42:08;44.95;;;22.85;;
65936;SDS011;52707;52.086;5.418;2022-12-01T16:44:35;46.08;;;23.33;;
65936;SDS011;52707;52.086;5.418;2022-12-01T16:47:02;42.35;;;22.75;;
65936;SDS011;52707;52.086;5.418;2022-12-01T16:49:28;45.35;;;22.88;;
65936;SDS011;52707;52.086;5.418;2022-12-01T16:51:54;46.42;;;23.33;;
65936;SDS011;52707;52.086;5.418;2022-12-01T16:54:23;43.83;;;21.95;;
65936;SDS011;52707;52.086;5.418;2022-12-01T16:56:49;44.83;;;22.90;;